createdAt,value
2023-05-06T00:01:58.938Z,100885.78
2023-05-06T00:04:25.527Z,100884.79
2023-05-06T00:06:52.830Z,100879.06
2023-05-06T00:09:19.360Z,100879.43
2023-05-06T00:11:47.470Z,100878.95
2023-05-06T00:14:13.943Z,100878.05
2023-05-06T00:16:40.555Z,100873.02
2023-05-06T00:19:07.356Z,100870.23
2023-05-06T00:21:33.826Z,100872.02
2023-05-06T00:24:00.286Z,100871.33
2023-05-06T00:26:26.766Z,100874.48
2023-05-06T00:28:53.159Z,100876.56
2023-05-06T00:31:19.635Z,100874.38
2023-05-06T00:33:46.061Z,100869.14
2023-05-06T00:36:12.654Z,100866.99
2023-05-06T00:38:39.159Z,100871.43
2023-05-06T00:41:05.846Z,100865.64
2023-05-06T00:43:32.516Z,100867.96
2023-05-06T00:45:59.352Z,100867.67
2023-05-06T00:48:26.043Z,100866.25
2023-05-06T00:50:52.965Z,100871.89
2023-05-06T00:53:23.674Z,100866.77
2023-05-06T00:55:51.224Z,100871.55
2023-05-06T00:58:20.345Z,100873.70
2023-05-06T01:00:47.272Z,100875.83
2023-05-06T01:03:13.880Z,100880.10
2023-05-06T01:05:53.056Z,100879.27
2023-05-06T01:08:32.089Z,100884.48
2023-05-06T01:11:09.781Z,100885.41
2023-05-06T01:14:04.008Z,100880.53
2023-05-06T01:16:34.711Z,100881.14
2023-05-06T01:19:01.686Z,100877.52
2023-05-06T01:21:34.663Z,100879.84
2023-05-06T01:24:01.705Z,100880.76
2023-05-06T01:26:28.321Z,100880.52
2023-05-06T01:28:56.131Z,100879.41
2023-05-06T01:31:52.424Z,100879.66
2023-05-06T01:34:27.977Z,100881.98
2023-05-06T01:37:09.553Z,100883.98
2023-05-06T01:39:38.209Z,100882.67
2023-05-06T01:42:06.165Z,100880.64
2023-05-06T01:44:34.477Z,100880.14
2023-05-06T01:47:01.939Z,100882.99
2023-05-06T01:49:30.039Z,100880.95
2023-05-06T01:51:56.662Z,100882.77
2023-05-06T01:54:23.358Z,100882.35
2023-05-06T01:56:50.074Z,100880.23
2023-05-06T01:59:17.023Z,100879.48
2023-05-06T02:01:43.523Z,100876.60
2023-05-06T02:04:10.214Z,100876.14
2023-05-06T02:06:36.739Z,100878.86
2023-05-06T02:09:03.340Z,100879.27
2023-05-06T02:11:29.987Z,100883.55
2023-05-06T02:13:57.082Z,100884.43
2023-05-06T02:16:23.735Z,100881.77
2023-05-06T02:18:51.003Z,100881.77
2023-05-06T02:21:18.049Z,100880.79
2023-05-06T02:23:44.629Z,100880.52
2023-05-06T02:26:11.198Z,100879.98
2023-05-06T02:28:37.930Z,100885.45
2023-05-06T02:31:04.393Z,100885.75
2023-05-06T02:33:31.309Z,100883.38
2023-05-06T02:35:57.889Z,100884.11
2023-05-06T02:38:24.438Z,100884.80
2023-05-06T02:40:51.001Z,100885.61
2023-05-06T02:43:17.516Z,100884.92
2023-05-06T02:45:43.949Z,100888.73
2023-05-06T02:48:11.250Z,100883.90
2023-05-06T02:50:38.086Z,100879.77
2023-05-06T02:53:04.640Z,100880.17
2023-05-06T02:55:31.457Z,100879.42
2023-05-06T02:57:58.184Z,100880.05
2023-05-06T03:00:24.874Z,100882.91
2023-05-06T03:02:51.448Z,100887.58
2023-05-06T03:05:18.197Z,100889.25
2023-05-06T03:07:44.958Z,100888.50
2023-05-06T03:10:11.660Z,100885.42
2023-05-06T03:12:38.621Z,100884.10
2023-05-06T03:15:06.262Z,100887.05
2023-05-06T03:17:33.189Z,100889.59
2023-05-06T03:19:59.969Z,100890.03
2023-05-06T03:22:26.708Z,100892.32
2023-05-06T03:24:53.193Z,100888.65
2023-05-06T03:27:19.939Z,100882.70
2023-05-06T03:29:46.657Z,100881.84
2023-05-06T03:32:13.178Z,100886.40
2023-05-06T03:34:40.006Z,100883.61
2023-05-06T03:37:06.768Z,100883.90
2023-05-06T03:39:33.359Z,100881.38
2023-05-06T03:41:59.969Z,100883.08
2023-05-06T03:44:26.680Z,100885.37
2023-05-06T03:46:53.360Z,100882.69
2023-05-06T03:49:20.763Z,100883.45
2023-05-06T03:51:47.526Z,100885.63
2023-05-06T03:54:14.312Z,100886.59
2023-05-06T03:56:40.913Z,100882.23
2023-05-06T03:59:07.833Z,100881.79
2023-05-06T04:01:35.299Z,100885.52
2023-05-06T04:04:02.215Z,100886.64
2023-05-06T04:06:28.840Z,100886.67
2023-05-06T04:08:55.306Z,100892.04
2023-05-06T04:11:21.963Z,100891.53
2023-05-06T04:13:48.643Z,100896.98
2023-05-06T04:16:15.525Z,100895.45
2023-05-06T04:18:43.843Z,100894.81
2023-05-06T04:21:13.170Z,100899.67
2023-05-06T04:23:39.614Z,100899.39
2023-05-06T04:26:06.327Z,100899.91
2023-05-06T04:28:33.203Z,100903.43
2023-05-06T04:30:59.695Z,100906.36
2023-05-06T04:33:27.406Z,100910.27
2023-05-06T04:35:54.443Z,100913.90
2023-05-06T04:38:22.690Z,100917.00
2023-05-06T04:40:49.688Z,100918.20
2023-05-06T04:43:18.543Z,100915.73
2023-05-06T04:45:51.551Z,100914.27
2023-05-06T04:48:19.220Z,100916.73
2023-05-06T04:50:46.924Z,100910.45
2023-05-06T04:53:14.186Z,100911.64
2023-05-06T04:55:40.926Z,100913.67
2023-05-06T04:58:07.822Z,100913.16
2023-05-06T05:00:35.504Z,100918.58
2023-05-06T05:03:02.262Z,100918.92
2023-05-06T05:05:29.109Z,100922.92
2023-05-06T05:07:56.013Z,100920.69
2023-05-06T05:10:22.644Z,100920.02
2023-05-06T05:12:49.090Z,100932.97
2023-05-06T05:15:15.629Z,100928.35
2023-05-06T05:17:42.213Z,100925.14
2023-05-06T05:20:09.652Z,100926.38
2023-05-06T05:22:36.548Z,100921.58
2023-05-06T05:25:05.091Z,100920.34
2023-05-06T05:27:32.782Z,100927.10
2023-05-06T05:29:59.844Z,100926.73
2023-05-06T05:32:26.445Z,100923.66
2023-05-06T05:34:53.212Z,100925.64
2023-05-06T05:37:19.977Z,100934.41
2023-05-06T05:39:46.589Z,100939.47
2023-05-06T05:42:13.197Z,100948.27
2023-05-06T05:44:39.719Z,100952.89
2023-05-06T05:47:06.574Z,100955.69
2023-05-06T05:49:33.249Z,100956.95
2023-05-06T05:51:59.664Z,100960.73
2023-05-06T05:54:26.269Z,100961.76
2023-05-06T05:56:53.090Z,100968.41
2023-05-06T05:59:19.689Z,100973.59
2023-05-06T06:01:46.148Z,100976.46
2023-05-06T06:04:12.787Z,100975.58
2023-05-06T06:06:39.412Z,100977.34
2023-05-06T06:09:05.920Z,100973.77
2023-05-06T06:11:32.395Z,100970.05
2023-05-06T06:13:58.748Z,100968.67
2023-05-06T06:16:25.404Z,100970.78
2023-05-06T06:18:52.000Z,100972.91
2023-05-06T06:21:18.463Z,100978.42
2023-05-06T06:23:44.906Z,100980.29
2023-05-06T06:26:12.405Z,100985.18
2023-05-06T06:28:39.457Z,100990.59
2023-05-06T06:31:05.916Z,100987.89
2023-05-06T06:33:32.454Z,100989.07
2023-05-06T06:35:59.065Z,100993.80
2023-05-06T06:38:25.986Z,100993.73
2023-05-06T06:40:52.482Z,100995.54
2023-05-06T06:43:20.033Z,100995.34
2023-05-06T06:45:49.473Z,100997.09
2023-05-06T06:48:16.549Z,100994.49
2023-05-06T06:50:43.091Z,100995.79
2023-05-06T06:53:10.853Z,100998.52
2023-05-06T06:55:37.380Z,101001.09
2023-05-06T06:58:04.054Z,101005.63
2023-05-06T07:00:30.537Z,101015.42
2023-05-06T07:02:57.191Z,101014.67
2023-05-06T07:05:24.032Z,101013.50
2023-05-06T07:07:50.504Z,101016.48
2023-05-06T07:10:16.981Z,101015.42
2023-05-06T07:12:43.464Z,101014.27
2023-05-06T07:15:10.602Z,101015.81
2023-05-06T07:20:49.729Z,101008.97
2023-05-06T07:23:16.166Z,101008.50
2023-05-06T07:25:42.569Z,101010.11
2023-05-06T07:28:08.960Z,101015.56
2023-05-06T07:30:38.423Z,101022.89
2023-05-06T07:33:05.042Z,101024.41
2023-05-06T07:35:31.558Z,101026.92
2023-05-06T07:37:58.080Z,101026.02
2023-05-06T07:40:24.683Z,101028.95
2023-05-06T07:42:51.208Z,101029.71
2023-05-06T07:45:19.562Z,101033.48
2023-05-06T07:47:46.245Z,101034.30
2023-05-06T07:50:12.841Z,101037.11
2023-05-06T07:52:39.366Z,101035.91
2023-05-06T07:55:06.373Z,101038.73
2023-05-06T07:57:32.784Z,101040.89
2023-05-06T07:59:59.223Z,101042.93
2023-05-06T08:02:27.029Z,101037.62
2023-05-06T08:04:53.921Z,101034.75
2023-05-06T08:07:21.128Z,101037.49
2023-05-06T08:09:47.596Z,101036.91
2023-05-06T08:12:16.203Z,101037.67
2023-05-06T08:14:42.582Z,101043.77
2023-05-06T08:17:08.998Z,101049.95
2023-05-06T08:19:35.366Z,101054.92
2023-05-06T08:22:01.777Z,101057.80
2023-05-06T08:24:28.376Z,101057.55
2023-05-06T08:26:55.104Z,101058.81
2023-05-06T08:29:21.557Z,101058.78
2023-05-06T08:31:48.064Z,101059.48
2023-05-06T08:34:18.455Z,101061.30
2023-05-06T08:36:45.259Z,101061.25
2023-05-06T08:39:11.643Z,101062.55
2023-05-06T08:41:39.749Z,101064.95
2023-05-06T08:44:07.855Z,101065.42
2023-05-06T08:46:34.548Z,101065.14
2023-05-06T08:49:01.011Z,101073.01
2023-05-06T08:51:31.776Z,101076.41
2023-05-06T08:54:01.388Z,101071.30
2023-05-06T08:56:30.962Z,101071.61
2023-05-06T08:58:58.464Z,101072.02
2023-05-06T09:01:29.117Z,101070.46
2023-05-06T09:03:56.953Z,101069.30
2023-05-06T09:06:24.994Z,101064.73
2023-05-06T09:08:51.397Z,101073.81
2023-05-06T09:11:26.397Z,101073.05
2023-05-06T09:14:08.924Z,101075.70
2023-05-06T09:16:35.765Z,101075.95
2023-05-06T09:19:02.243Z,101072.55
2023-05-06T09:21:35.361Z,101071.83
2023-05-06T09:24:04.036Z,101079.81
2023-05-06T09:26:32.634Z,101081.20
2023-05-06T09:28:59.764Z,101081.09
2023-05-06T09:31:28.102Z,101084.73
2023-05-06T09:33:56.284Z,101084.67
2023-05-06T09:36:24.399Z,101080.98
2023-05-06T09:38:50.885Z,101080.17
2023-05-06T09:41:24.234Z,101079.23
2023-05-06T09:43:52.799Z,101082.19
2023-05-06T09:46:21.553Z,101085.82
2023-05-06T09:48:50.518Z,101077.56
2023-05-06T09:51:17.119Z,101078.50
2023-05-06T09:53:45.038Z,101083.79
2023-05-06T09:56:13.726Z,101084.02
2023-05-06T09:58:40.861Z,101084.67
2023-05-06T10:01:09.159Z,101084.81
2023-05-06T10:03:36.507Z,101082.38
2023-05-06T10:06:06.290Z,101081.88
2023-05-06T10:08:36.833Z,101083.65
2023-05-06T10:11:06.241Z,101087.78
2023-05-06T10:13:33.131Z,101086.11
2023-05-06T10:16:01.973Z,101084.73
2023-05-06T10:18:30.762Z,101086.31
2023-05-06T10:21:00.216Z,101077.75
2023-05-06T10:23:50.775Z,101082.05
2023-05-06T10:26:19.933Z,101076.13
2023-05-06T10:28:52.666Z,101075.46
2023-05-06T10:31:20.003Z,101082.58
2023-05-06T10:33:50.014Z,101085.48
2023-05-06T10:36:28.590Z,101080.61
2023-05-06T10:38:57.081Z,101081.78
2023-05-06T10:41:27.738Z,101076.74
2023-05-06T10:43:56.859Z,101077.23
2023-05-06T10:46:26.409Z,101064.96
2023-05-06T10:49:11.674Z,101069.23
2023-05-06T10:51:38.900Z,101066.58
2023-05-06T10:54:09.968Z,101066.34
2023-05-06T10:57:02.561Z,101067.14
2023-05-06T10:59:29.937Z,101063.04
2023-05-06T11:02:08.825Z,101068.60
2023-05-06T11:04:37.495Z,101060.88
2023-05-06T11:07:12.334Z,101061.88
2023-05-06T11:10:01.315Z,101066.35
2023-05-06T11:12:47.238Z,101067.59
2023-05-06T11:15:26.580Z,101069.77
2023-05-06T11:17:55.538Z,101068.11
2023-05-06T11:20:26.562Z,101068.27
2023-05-06T11:22:54.309Z,101069.77
2023-05-06T11:25:41.546Z,101072.01
2023-05-06T11:28:12.350Z,101073.70
2023-05-06T11:30:43.829Z,101077.57
2023-05-06T11:33:19.231Z,101077.04
2023-05-06T11:35:46.136Z,101073.02
2023-05-06T11:38:12.692Z,101075.41
2023-05-06T11:40:41.768Z,101069.13
2023-05-06T11:43:14.842Z,101069.75
2023-05-06T11:45:45.834Z,101067.42
2023-05-06T11:48:13.641Z,101068.02
2023-05-06T11:50:50.445Z,101066.70
2023-05-06T11:53:19.108Z,101068.77
2023-05-06T11:55:47.156Z,101075.89
2023-05-06T11:58:24.544Z,101075.75
2023-05-06T12:00:55.862Z,101074.30
2023-05-06T12:03:24.484Z,101074.48
2023-05-06T12:05:51.902Z,101076.14
2023-05-06T12:08:29.983Z,101078.35
2023-05-06T12:10:59.755Z,101081.38
2023-05-06T12:13:27.881Z,101083.77
2023-05-06T12:15:56.009Z,101084.29
2023-05-06T12:18:23.962Z,101083.21
2023-05-06T12:20:53.082Z,101086.02
2023-05-06T12:23:20.028Z,101079.95
2023-05-06T12:25:46.702Z,101079.21
2023-05-06T12:28:17.952Z,101076.33
2023-05-06T12:30:44.990Z,101075.75
2023-05-06T12:33:12.343Z,101075.66
2023-05-06T12:35:40.556Z,101078.49
2023-05-06T12:38:11.941Z,101074.95
2023-05-06T12:40:41.109Z,101079.00
2023-05-06T12:43:08.613Z,101080.82
2023-05-06T12:45:35.691Z,101090.12
2023-05-06T12:48:03.966Z,101089.86
2023-05-06T12:50:41.975Z,101087.42
2023-05-06T12:53:13.252Z,101091.36
2023-05-06T12:55:45.195Z,101091.95
2023-05-06T12:58:19.138Z,101088.06
2023-05-06T13:00:46.388Z,101090.27
2023-05-06T13:03:13.492Z,101088.20
2023-05-06T13:05:40.145Z,101089.73
2023-05-06T13:08:06.937Z,101089.67
2023-05-06T13:10:33.581Z,101079.23
2023-05-06T13:13:00.470Z,101083.10
2023-05-06T13:15:27.141Z,101086.08
2023-05-06T13:17:53.774Z,101082.00
2023-05-06T13:20:21.264Z,101080.67
2023-05-06T13:22:54.452Z,101080.39
2023-05-06T13:25:22.146Z,101076.44
2023-05-06T13:27:49.046Z,101083.52
2023-05-06T13:30:15.757Z,101086.58
2023-05-06T13:32:42.684Z,101090.84
2023-05-06T13:35:10.290Z,101091.96
2023-05-06T13:37:36.971Z,101089.95
2023-05-06T13:40:04.884Z,101085.77
2023-05-06T13:42:31.490Z,101080.40
2023-05-06T13:44:57.905Z,101080.07
2023-05-06T13:47:25.104Z,101079.66
2023-05-06T13:49:51.689Z,101081.36
2023-05-06T13:52:18.346Z,101086.05
2023-05-06T13:54:45.162Z,101083.91
2023-05-06T13:57:11.776Z,101084.06
2023-05-06T13:59:38.163Z,101076.29
2023-05-06T14:02:08.779Z,101071.94
2023-05-06T14:04:36.145Z,101070.91
2023-05-06T14:07:02.987Z,101072.05
2023-05-06T14:09:29.413Z,101067.83
2023-05-06T14:11:56.155Z,101066.25
2023-05-06T14:14:22.865Z,101069.59
2023-05-06T14:16:51.612Z,101070.39
2023-05-06T14:19:18.326Z,101067.74
2023-05-06T14:21:45.012Z,101065.92
2023-05-06T14:24:12.529Z,101066.08
2023-05-06T14:26:40.368Z,101061.09
2023-05-06T14:29:06.852Z,101058.77
2023-05-06T14:31:34.553Z,101058.50
2023-05-06T14:34:02.661Z,101051.05
2023-05-06T14:36:29.266Z,101046.45
2023-05-06T14:38:56.186Z,101042.37
2023-05-06T14:41:23.261Z,101040.11
2023-05-06T14:43:50.011Z,101044.89
2023-05-06T14:46:17.781Z,101040.79
2023-05-06T14:48:45.355Z,101043.09
2023-05-06T14:51:11.964Z,101044.14
2023-05-06T14:53:38.409Z,101041.06
2023-05-06T14:56:08.454Z,101042.10
2023-05-06T14:58:35.087Z,101042.34
2023-05-06T15:01:01.818Z,101040.22
2023-05-06T15:03:28.603Z,101040.90
2023-05-06T15:05:55.579Z,101041.71
2023-05-06T15:08:23.635Z,101045.77
2023-05-06T15:10:50.558Z,101040.44
2023-05-06T15:13:17.397Z,101041.00
2023-05-06T15:15:44.504Z,101041.32
2023-05-06T15:18:13.266Z,101034.33
2023-05-06T15:20:39.938Z,101037.73
2023-05-06T15:23:06.601Z,101034.42
2023-05-06T15:25:36.191Z,101034.71
2023-05-06T15:28:04.579Z,101036.91
2023-05-06T15:30:31.283Z,101032.84
2023-05-06T15:32:57.859Z,101032.41
2023-05-06T15:35:24.613Z,101036.38
2023-05-06T15:37:55.833Z,101036.39
2023-05-06T15:40:25.435Z,101034.87
2023-05-06T15:42:52.690Z,101030.66
2023-05-06T15:45:19.425Z,101028.63
2023-05-06T15:47:48.287Z,101028.05
2023-05-06T15:50:25.308Z,101029.31
2023-05-06T15:52:59.940Z,101027.07
2023-05-06T15:55:26.738Z,101028.66
2023-05-06T15:57:54.767Z,101028.48
2023-05-06T16:00:21.993Z,101034.63
2023-05-06T16:02:48.808Z,101038.21
2023-05-06T16:05:15.873Z,101040.85
2023-05-06T16:07:42.653Z,101041.77
2023-05-06T16:10:09.340Z,101035.41
2023-05-06T16:12:36.057Z,101038.67
2023-05-06T16:15:03.227Z,101040.11
2023-05-06T16:17:30.243Z,101041.27
2023-05-06T16:19:56.793Z,101043.93
2023-05-06T16:22:23.492Z,101040.21
2023-05-06T16:24:50.260Z,101038.91
2023-05-06T16:27:16.999Z,101037.48
2023-05-06T16:29:43.778Z,101034.87
2023-05-06T16:32:10.353Z,101037.02
2023-05-06T16:34:38.994Z,101035.42
2023-05-06T16:37:07.864Z,101037.92
2023-05-06T16:39:34.542Z,101040.89
2023-05-06T16:42:01.838Z,101043.42
2023-05-06T16:44:29.123Z,101042.54
2023-05-06T16:46:55.998Z,101046.84
2023-05-06T16:49:22.867Z,101058.34
2023-05-06T16:51:49.453Z,101056.67
2023-05-06T16:54:16.184Z,101058.98
2023-05-06T16:56:51.269Z,101064.74
2023-05-06T16:59:21.456Z,101065.36
2023-05-06T17:01:48.842Z,101068.08
2023-05-06T17:04:16.027Z,101065.60
2023-05-06T17:06:42.747Z,101066.48
2023-05-06T17:09:09.383Z,101068.45
2023-05-06T17:11:35.946Z,101071.73
2023-05-06T17:14:02.581Z,101073.02
2023-05-06T17:16:29.136Z,101075.85
2023-05-06T17:18:55.726Z,101079.20
2023-05-06T17:21:22.646Z,101080.06
2023-05-06T17:23:51.295Z,101084.46
2023-05-06T17:26:18.405Z,101088.42
2023-05-06T17:28:45.185Z,101092.34
2023-05-06T17:31:11.948Z,101092.90
2023-05-06T17:33:38.478Z,101093.40
2023-05-06T17:36:05.534Z,101094.83
2023-05-06T17:38:32.277Z,101096.69
2023-05-06T17:40:58.952Z,101102.36
2023-05-06T17:43:25.555Z,101103.23
2023-05-06T17:45:52.614Z,101102.39
2023-05-06T17:48:19.162Z,101108.69
2023-05-06T17:50:45.859Z,101105.86
2023-05-06T17:53:12.512Z,101106.33
2023-05-06T17:55:39.778Z,101110.94
2023-05-06T17:58:06.315Z,101112.80
2023-05-06T18:00:33.187Z,101115.63
2023-05-06T18:03:00.044Z,101119.08
2023-05-06T18:05:27.703Z,101120.98
2023-05-06T18:07:54.506Z,101129.72
2023-05-06T18:10:21.266Z,101135.50
2023-05-06T18:12:48.209Z,101141.25
2023-05-06T18:15:15.202Z,101149.23
2023-05-06T18:17:41.962Z,101155.77
2023-05-06T18:20:10.121Z,101159.17
2023-05-06T18:22:36.988Z,101160.14
2023-05-06T18:25:04.341Z,101162.42
2023-05-06T18:27:32.404Z,101163.35
2023-05-06T18:29:59.405Z,101164.13
2023-05-06T18:32:26.200Z,101168.52
2023-05-06T18:34:52.897Z,101170.18
2023-05-06T18:37:19.608Z,101170.50
2023-05-06T18:39:46.227Z,101175.84
2023-05-06T18:42:12.998Z,101174.70
2023-05-06T18:44:39.568Z,101174.65
2023-05-06T18:47:06.062Z,101172.84
2023-05-06T18:49:32.728Z,101177.36
2023-05-06T18:52:00.208Z,101179.52
2023-05-06T18:54:27.293Z,101184.58
2023-05-06T18:56:54.720Z,101190.87
2023-05-06T18:59:21.580Z,101184.27
2023-05-06T19:01:48.158Z,101191.96
2023-05-06T19:04:14.864Z,101193.64
2023-05-06T19:06:41.538Z,101188.48
2023-05-06T19:09:08.168Z,101196.29
2023-05-06T19:11:34.969Z,101198.20
2023-05-06T19:14:01.457Z,101205.29
2023-05-06T19:16:27.967Z,101207.50
2023-05-06T19:18:54.656Z,101208.80
2023-05-06T19:21:21.651Z,101214.91
2023-05-06T19:23:48.156Z,101216.64
2023-05-06T19:26:14.785Z,101215.66
2023-05-06T19:28:41.335Z,101216.80
2023-05-06T19:31:11.660Z,101219.20
2023-05-06T19:33:39.357Z,101227.05
2023-05-06T19:36:06.579Z,101229.46
2023-05-06T19:38:33.581Z,101232.83
2023-05-06T19:41:00.204Z,101232.66
2023-05-06T19:43:26.818Z,101235.66
2023-05-06T19:45:53.246Z,101229.58
2023-05-06T19:48:19.726Z,101222.70
2023-05-06T19:50:46.269Z,101226.77
2023-05-06T19:53:12.719Z,101227.30
2023-05-06T19:55:39.206Z,101236.07
2023-05-06T19:58:05.760Z,101243.48
2023-05-06T20:00:32.637Z,101241.51
2023-05-06T20:03:00.301Z,101237.79
2023-05-06T20:05:31.906Z,101241.55
2023-05-06T20:08:02.030Z,101243.17
2023-05-06T20:10:29.271Z,101235.05
2023-05-06T20:12:57.839Z,101234.66
2023-05-06T20:15:24.783Z,101237.20
2023-05-06T20:17:51.309Z,101236.50
2023-05-06T20:20:19.476Z,101234.84
2023-05-06T20:22:46.237Z,101235.20
2023-05-06T20:25:17.513Z,101236.20
2023-05-06T20:27:45.820Z,101234.44
2023-05-06T20:30:12.818Z,101233.66
2023-05-06T20:32:40.462Z,101235.19
2023-05-06T20:35:07.471Z,101239.81
2023-05-06T20:37:35.291Z,101240.61
2023-05-06T20:40:04.516Z,101239.23
2023-05-06T20:42:31.622Z,101241.97
2023-05-06T20:44:58.542Z,101239.47
2023-05-06T20:47:25.155Z,101236.94
2023-05-06T20:49:51.570Z,101236.00
2023-05-06T20:52:18.309Z,101239.36
2023-05-06T20:54:45.268Z,101239.65
2023-05-06T20:57:14.222Z,101239.38
2023-05-06T20:59:41.299Z,101244.14
2023-05-06T21:02:07.873Z,101245.36
2023-05-06T21:04:34.405Z,101245.89
2023-05-06T21:07:01.156Z,101250.77
2023-05-06T21:09:28.861Z,101249.91
2023-05-06T21:11:56.065Z,101246.59
2023-05-06T21:14:24.782Z,101247.08
2023-05-06T21:16:52.107Z,101241.30
2023-05-06T21:19:19.471Z,101249.80
2023-05-06T21:21:46.150Z,101251.79
2023-05-06T21:24:16.086Z,101254.38
2023-05-06T21:26:42.706Z,101246.73
2023-05-06T21:29:09.642Z,101252.97
2023-05-06T21:31:36.673Z,101254.13
2023-05-06T21:34:04.288Z,101254.64
2023-05-06T21:36:31.284Z,101251.85
2023-05-06T21:39:07.998Z,101250.29
2023-05-06T21:41:36.033Z,101251.02
2023-05-06T21:44:03.653Z,101252.78
2023-05-06T21:46:30.767Z,101253.07
2023-05-06T21:48:57.467Z,101251.75
2023-05-06T21:51:29.489Z,101239.14
2023-05-06T21:53:56.278Z,101243.83
2023-05-06T21:56:22.830Z,101243.91
2023-05-06T21:58:49.365Z,101243.20
2023-05-06T22:01:16.660Z,101248.05
2023-05-06T22:03:44.478Z,101250.55
2023-05-06T22:06:11.546Z,101256.86
2023-05-06T22:08:37.983Z,101259.02
2023-05-06T22:11:04.452Z,101256.83
2023-05-06T22:13:31.597Z,101256.61
2023-05-06T22:15:58.304Z,101257.02
2023-05-06T22:18:25.789Z,101257.70
2023-05-06T22:20:56.543Z,101259.04
2023-05-06T22:23:24.320Z,101259.02
2023-05-06T22:25:54.242Z,101262.77
2023-05-06T22:28:20.836Z,101259.23
2023-05-06T22:30:47.779Z,101260.36
2023-05-06T22:33:14.297Z,101258.73
2023-05-06T22:35:40.978Z,101257.57
2023-05-06T22:38:09.019Z,101260.48
2023-05-06T22:40:35.884Z,101260.69
2023-05-06T22:43:02.520Z,101261.05
2023-05-06T22:45:29.576Z,101258.53
2023-05-06T22:47:56.988Z,101255.41
2023-05-06T22:50:24.904Z,101253.67
2023-05-06T22:52:51.544Z,101255.09
2023-05-06T22:55:18.515Z,101259.60
2023-05-06T22:57:45.203Z,101265.56
2023-05-06T23:00:12.836Z,101263.98
2023-05-06T23:02:41.404Z,101268.41
2023-05-06T23:05:08.631Z,101269.98
2023-05-06T23:07:35.682Z,101269.50
2023-05-06T23:10:02.275Z,101268.70
2023-05-06T23:12:32.769Z,101266.45
2023-05-06T23:15:00.174Z,101266.33
2023-05-06T23:17:27.215Z,101267.33
2023-05-06T23:19:54.023Z,101266.33
2023-05-06T23:22:20.722Z,101268.95
2023-05-06T23:24:47.328Z,101266.30
2023-05-06T23:27:13.778Z,101267.46
2023-05-06T23:29:40.524Z,101269.27
2023-05-06T23:32:07.218Z,101267.55
2023-05-06T23:34:33.670Z,101267.89
2023-05-06T23:37:00.559Z,101266.59
2023-05-06T23:39:27.291Z,101261.86
2023-05-06T23:41:54.050Z,101262.39
2023-05-06T23:44:20.650Z,101267.58
2023-05-06T23:46:47.406Z,101265.65
2023-05-06T23:49:14.185Z,101272.22
2023-05-06T23:51:40.709Z,101274.09
2023-05-06T23:54:07.339Z,101272.39
2023-05-06T23:56:34.003Z,101274.44
2023-05-06T23:59:00.622Z,101277.27
